Latest Coastal Weather Observations for Flinders Island Airport

IDV60701

Issued at 1:41 am EST Monday 26 September 2016 (issued every 10 minutes, with the page automatically refreshed every 10 minutes)

About coastal observations | Map of coastal stations | Coastal observations for VIC | Marine services | Other Formats
Station Details ID: 099005 Name: FLINDERS ISLAND AIRPORT Lat: -40.09 Lon: 148.00 Height: 9.0 m
Data from the previous 72 hours. | See also: Recent months at Flinders Island Airport
Date/Time
EST
Temp
°C
Wind Pressure Rain since
9am
mm
Weather Cloud Vis
km
Sea
Height
m
Swell
Dir  Spd
kts
Gust
kts
hPa Trend Height
m
Period
s
Dir
26/01:30am 10.8 WSW 15 18 1011.5 - 0.0 - - 10 - - - -
26/01:00am 10.7 WSW 15 19 1011.6 - 0.0 - - 10 - - - -
26/12:30am 10.8 WSW 16 21 1011.4 - 0.0 - - 10 - - - -
26/12:00am 10.9 WSW 17 21 1011.3 - 0.0 - - 10 - - - -
 
Date/Time
EST
Temp
°C
Wind Pressure Rain since
9am
mm
Weather Cloud Vis
km
Sea
Height
m
Swell
Dir  Spd
kts
Gust
kts
hPa Trend Height
m
Period
s
Dir
25/11:30pm 11.2 WSW 17 23 1011.1 - 0.0 - - 10 - - - -
25/11:00pm 11.6 WSW 17 21 1010.9 - 0.0 - - 10 - - - -
25/10:30pm 11.8 WSW 18 22 1010.8 - 0.0 - - 10 - - - -
25/10:00pm 11.8 WSW 19 23 1010.7 - 0.0 - Partly cloudy 10 - - - -
25/09:30pm 12.0 WSW 19 23 1010.4 - 0.0 - - 10 - - - -
25/09:00pm 12.1 WSW 20 24 1010.2 - 0.0 - Mostly clear 10 - - - -
25/08:30pm 12.1 WSW 20 27 1009.9 - 0.0 - Partly cloudy 10 - - - -
25/08:00pm 12.3 W 21 26 1009.7 - 0.0 - Partly cloudy 10 - - - -
25/07:30pm 12.2 W 20 24 1009.5 - 0.0 - Partly cloudy 10 - - - -
25/07:00pm 12.1 W 20 25 1009.0 - 0.0 - - 10 - - - -
25/06:30pm 12.0 W 22 26 1008.5 - 0.0 - - 10 - - - -
25/06:00pm 12.0 W 22 28 1008.2 - 0.0 - - 10 - - - -
25/05:30pm 12.2 W 22 26 1008.0 - 0.0 - - 10 - - - -
25/05:00pm 12.6 W 24 29 1007.6 - 0.0 - - 10 - - - -
25/04:30pm 12.9 W 27 30 1007.3 - 0.0 - - 10 - - - -
25/04:00pm 12.8 W 26 32 1007.0 - 0.0 - Partly cloudy 10 - - - -
25/03:30pm 13.1 W 27 33 1006.7 - 0.0 - - 10 - - - -
25/03:00pm 13.7 W 26 30 1006.8 - 0.0 - - 10 - - - -
25/02:30pm 13.7 W 23 29 1006.7 - 0.0 - Partly cloudy 10 - - - -
25/02:00pm 13.6 W 25 29 1006.8 - 0.0 - - 10 - - - -
25/01:30pm 13.8 W 24 29 1006.9 - 0.0 - - 10 - - - -
25/01:00pm 13.7 W 23 29 1007.0 - 0.0 - - 10 - - - -
25/12:30pm 14.0 W 23 29 1006.8 - 0.0 - Partly cloudy 10 - - - -
25/12:00pm 13.7 W 26 30 1006.7 - 0.0 - - 10 - - - -
25/11:30am 13.9 WSW 22 27 1006.7 - 0.0 - Partly cloudy 10 - - - -
25/11:00am 13.3 WSW 23 28 1006.4 - 0.0 - Partly cloudy 10 - - - -
25/10:30am 13.6 WSW 23 28 1006.2 - 0.0 - Partly cloudy 10 - - - -
25/10:00am 13.8 WSW 22 26 1006.0 - 0.0 - Partly cloudy 10 - - - -
25/09:30am 13.4 WSW 21 26 1006.0 - 0.0 - Partly cloudy 10 - - - -
25/09:00am 12.9 WSW 24 30 1005.7 - 2.6 - Partly cloudy 10 - - - -
25/08:30am 13.1 WSW 24 28 1005.4 - 2.6 - Partly cloudy 10 - - - -
25/08:00am 12.7 WSW 25 29 1005.1 - 2.6 - Partly cloudy 10 - - - -
25/07:30am 12.6 WSW 24 28 1004.8 - 2.6 - Partly cloudy 10 - - - -
25/07:01am 12.3 WSW 23 30 1004.4 - 2.6 - Partly cloudy 10 - - - -
25/07:00am 12.3 WSW 23 28 1004.4 - 2.6 - Partly cloudy 10 - - - -
25/06:30am 12.3 W 23 28 1004.0 - 2.6 - Partly cloudy 10 - - - -
25/06:24am 12.3 WNW 17 28 1003.8 - 2.6 - Partly cloudy 10 - - - -
25/06:22am 12.6 WNW 15 27 1003.8 - 2.6 - Partly cloudy 10 - - - -
25/06:00am 12.6 WNW 10 15 1003.8 - 2.6 - Cloudy 10 - - - -
25/05:58am 12.6 WNW 10 14 1003.8 - 2.6 - Partly cloudy 10 - - - -
25/05:57am 12.6 WNW 9 14 1003.7 - 2.6 - Partly cloudy 10 - - - -
25/05:44am 12.4 WNW 10 15 1003.7 - 2.6 - Partly cloudy 10 - - - -
25/05:38am 12.4 WNW 11 15 1003.7 - 2.6 - Partly cloudy 10 - - - -
25/05:30am 12.5 WNW 11 17 1003.8 - 2.6 - Partly cloudy 10 - - - -
25/05:02am 12.4 WNW 13 19 1003.6 - 2.6 - Partly cloudy 10 - - - -
25/05:00am 12.3 WNW 12 19 1003.6 - 2.6 - Partly cloudy 10 - - - -
25/04:30am 11.8 WNW 8 11 1003.3 - 2.6 - - 10 - - - -
25/04:00am 12.1 WNW 9 11 1003.3 - 2.6 - Partly cloudy 10 - - - -
25/03:30am 12.8 WNW 13 17 1003.5 - 2.6 - Partly cloudy 10 - - - -
25/03:00am 12.2 NW 9 11 1003.7 - 2.6 - Mostly cloudy 10 - - - -
25/02:30am 12.0 NW 5 6 1004.0 - 2.6 - - 10 - - - -
25/02:00am 11.9 NNW 4 4 1004.2 - 2.6 - Partly cloudy 10 - - - -
25/01:30am 11.6 NE 4 4 1004.3 - 2.6 - Partly cloudy 10 - - - -
25/01:00am 12.5 NE 5 6 1004.4 - 2.6 - Cloudy 10 - - - -
25/12:30am 12.8 ENE 9 11 1004.5 - 2.6 - Partly cloudy 10 - - - -
25/12:00am 13.1 N 5 6 1005.1 - 2.0 Recent precip. Mostly cloudy 10 - - - -
 
Date/Time
EST
Temp
°C
Wind Pressure Rain since
9am
mm
Weather Cloud Vis
km
Sea
Height
m
Swell
Dir  Spd
kts
Gust
kts
hPa Trend Height
m
Period
s
Dir
24/11:30pm 12.9 NNE 4 5 1005.6 - 1.2 - Partly cloudy 7 - - - -
24/11:00pm 12.2 NE 3 4 1005.7 - 1.0 - Partly cloudy 10 - - - -
24/10:48pm 12.2 NE 4 5 1005.7 - 1.0 - Partly cloudy 10 - - - -
24/10:35pm 11.2 ENE 4 5 1005.7 - 1.0 - Partly cloudy 10 - - - -
24/10:30pm 11.0 ENE 4 5 1005.8 - 1.0 - Partly cloudy 10 - - - -
24/10:27pm 10.9 NE 4 5 1005.8 - 1.0 - Partly cloudy 10 - - - -
24/10:00pm 12.0 CALM 0 1 1006.1 - 1.0 - Partly cloudy 10 - - - -
24/09:30pm 12.5 NW 1 4 1006.3 - 1.0 - Partly cloudy 10 - - - -
24/09:22pm 12.3 E 4 5 1006.4 - 1.0 - Partly cloudy 10 - - - -
24/09:00pm 12.9 NE 1 5 1006.4 - 1.0 - Cloudy 10 - - - -
24/08:56pm 13.0 CALM 0 0 1006.4 - 1.0 - Partly cloudy 10 - - - -
24/08:30pm 13.5 NW 5 6 1006.8 - 1.0 - Cloudy 10 - - - -
24/08:00pm 13.7 WSW 7 8 1006.7 - 1.0 - Partly cloudy 10 - - - -
24/07:42pm 13.6 SW 6 7 1006.4 - 1.0 - Partly cloudy 10 - - - -
24/07:31pm 13.0 CALM 0 3 1006.2 - 1.0 - Partly cloudy 10 - - - -
24/07:30pm 13.1 CALM 0 2 1006.2 - 1.0 - Partly cloudy 10 - - - -
24/07:21pm 13.0 SE 1 4 1006.2 - 1.0 - Partly cloudy 5 - - - -
24/07:15pm 13.3 CALM 0 4 1006.1 - 1.0 - Partly cloudy 8 - - - -
24/07:00pm 13.7 CALM 0 0 1006.3 - 1.0 - Partly cloudy 10 - - - -
24/06:30pm 14.3 NNW 3 5 1006.2 - 1.0 - Partly cloudy 9 - - - -
24/06:03pm 14.7 WNW 7 9 1006.4 - 1.0 - Partly cloudy 10 - - - -
24/06:00pm 14.8 WNW 7 9 1006.4 - 1.0 - Cloudy 10 - - - -
24/05:30pm 15.8 NNE 8 10 1006.5 - 1.0 - Partly cloudy 10 - - - -
24/05:00pm 16.3 NNE 11 16 1006.3 - 1.0 - Partly cloudy 10 - - - -
24/04:30pm 16.7 NNE 13 17 1006.3 - 1.0 - Partly cloudy 10 - - - -
24/04:00pm 17.3 NNE 13 17 1006.1 - 1.0 - Partly cloudy 10 - - - -
24/03:30pm 16.6 NNE 11 17 1006.0 - 1.0 - Partly cloudy 10 - - - -
24/03:00pm 17.0 NNE 14 18 1006.1 - 1.0 - Cloudy 10 - - - -
24/02:30pm 17.8 NNE 16 19 1006.4 - 1.0 - Partly cloudy 10 - - - -
24/02:00pm 17.5 NNE 13 21 1006.7 - 1.0 - Partly cloudy 10 - - - -
24/01:30pm 17.9 NNE 16 21 1007.1 - 1.0 - Partly cloudy 10 - - - -
24/01:11pm 17.5 NNE 14 18 1007.4 - 1.0 - Partly cloudy 10 - - - -
24/01:00pm 17.5 NNE 13 18 1007.5 - 1.0 - Partly cloudy 10 - - - -
24/12:33pm 16.3 NNE 10 15 1008.1 - 1.0 - Partly cloudy 7 - - - -
24/12:30pm 16.2 NNE 10 15 1008.2 - 1.0 - Partly cloudy 7 - - - -
24/12:10pm 16.7 NNE 12 16 1008.3 - 0.4 - Partly cloudy 10 - - - -
24/12:07pm 16.7 NNE 13 19 1008.4 - 0.4 - Partly cloudy 10 - - - -
24/12:00pm 16.4 NNE 14 19 1008.4 - 0.4 Recent precip. Cloudy 8 - - - -
24/11:41am 16.3 NNE 17 22 1008.4 - 0.2 - Partly cloudy 5 - - - -
24/11:38am 16.4 NE 17 23 1008.5 - 0.2 - Partly cloudy 6 - - - -
24/11:30am 17.0 NE 16 23 1008.5 - 0.2 - Partly cloudy 10 - - - -
24/11:00am 17.2 NE 13 17 1008.8 - 0.2 - Partly cloudy 10 - - - -
24/10:30am 16.4 NNE 10 16 1009.4 - 0.2 - Partly cloudy 10 - - - -
24/10:00am 16.7 NE 13 20 1010.0 - 0.2 - Partly cloudy 10 - - - -
24/09:58am 16.8 NE 11 20 1010.0 - 0.2 - Partly cloudy 10 - - - -
24/09:57am 16.6 NE 11 20 1010.0 - 0.2 - Partly cloudy 10 - - - -
24/09:30am 16.6 NE 11 15 1010.3 - 0.2 - Partly cloudy 10 - - - -
24/09:15am 15.4 NE 10 15 1010.5 - 0.2 - Partly cloudy 7 - - - -
24/09:00am 15.8 ENE 10 14 1010.6 - 0.0 - Cloudy 10 - - - -
24/08:30am 15.4 NE 7 10 1010.9 - 0.0 - Partly cloudy 10 - - - -
24/08:00am 14.7 NE 6 7 1011.2 - 0.0 - Partly cloudy 10 - - - -
24/07:30am 14.3 NE 10 14 1011.2 - 0.0 - Partly cloudy 10 - - - -
24/07:00am 13.5 NE 9 14 1011.2 - 0.0 - Partly cloudy 10 - - - -
24/06:30am 12.3 ENE 7 8 1011.2 - 0.0 - - 10 - - - -
24/06:00am 11.8 ENE 9 10 1011.0 - 0.0 - Mostly cloudy 10 - - - -
24/05:30am 12.1 ENE 9 10 1011.0 - 0.0 - Partly cloudy 10 - - - -
24/05:00am 11.1 NE 7 8 1010.8 - 0.0 - - 10 - - - -
24/04:30am 6.4 E 7 8 1010.9 - 0.0 - - 10 - - - -
24/04:00am 6.6 ENE 5 7 1011.3 - 0.0 - - 10 - - - -
24/03:30am 5.4 CALM 0 0 1011.8 - 0.0 - - 10 - - - -
24/03:00am 5.9 NE 2 5 1012.1 - 0.0 - - 10 - - - -
24/02:30am 5.0 NE 5 6 1012.2 - 0.0 - - 10 - - - -
24/02:00am 6.6 ENE 4 5 1012.7 - 0.0 - Partly cloudy 10 - - - -
24/01:30am 6.2 ENE 4 5 1012.9 - 0.0 - Partly cloudy 10 - - - -
24/01:00am 5.4 E 5 7 1013.0 - 0.0 - - 10 - - - -
24/12:30am 6.3 E 5 6 1013.0 - 0.0 - - 10 - - - -
24/12:00am 5.3 E 6 7 1013.1 - 0.0 - - 10 - - - -
 
Date/Time
EST
Temp
°C
Wind Pressure Rain since
9am
mm
Weather Cloud Vis
km
Sea
Height
m
Swell
Dir  Spd
kts
Gust
kts
hPa Trend Height
m
Period
s
Dir
23/11:30pm 5.5 E 6 7 1013.4 - 0.0 - - 10 - - - -
23/11:00pm 6.4 ENE 5 7 1013.7 - 0.0 - - 10 - - - -
23/10:30pm 6.6 NE 4 4 1014.2 - 0.0 - - 10 - - - -
23/10:00pm 6.6 NE 5 6 1014.3 - 0.0 - - 10 - - - -
23/09:30pm 6.5 ENE 5 6 1014.3 - 0.0 - - 10 - - - -
23/09:00pm 6.5 NE 3 4 1014.6 - 0.0 - - 10 - - - -
23/08:30pm 8.1 ENE 4 4 1014.6 - 0.0 - - 10 - - - -
23/08:00pm 9.0 ESE 4 5 1014.7 - 0.0 - - 10 - - - -
23/07:30pm 10.1 ESE 5 6 1014.7 - 0.0 - - 10 - - - -
23/07:00pm 11.3 ESE 5 6 1014.6 - 0.0 - - 10 - - - -
23/06:30pm 11.2 E 6 6 1014.5 - 0.0 - - 10 - - - -
23/06:00pm 12.5 E 7 9 1014.3 - 0.0 - - 10 - - - -
23/05:30pm 13.8 ENE 7 8 1014.2 - 0.0 - - 10 - - - -
23/05:00pm 14.6 E 8 11 1014.1 - 0.0 - - 10 - - - -
23/04:30pm 15.1 E 8 12 1014.1 - 0.0 - - 10 - - - -
23/04:00pm 15.7 ESE 7 10 1013.9 - 0.0 - - 10 - - - -
23/03:30pm 16.1 ESE 9 14 1014.0 - 0.0 - - 10 - - - -
23/03:00pm 16.4 ESE 9 13 1014.3 - 0.0 - - 10 - - - -
23/02:30pm 16.0 ESE 7 12 1014.5 - 0.0 - Partly cloudy 10 - - - -
23/02:00pm 15.4 ESE 8 12 1014.7 - 0.0 - Partly cloudy 10 - - - -
23/01:30pm 16.9 ESE 8 12 1014.8 - 0.0 - Partly cloudy 10 - - - -
23/01:00pm 16.9 SSE 6 10 1015.2 - 0.0 - Partly cloudy 10 - - - -
23/12:30pm 17.2 S 7 10 1015.6 - 0.0 - Partly cloudy 10 - - - -
23/12:00pm 15.4 SSW 10 13 1015.9 - 0.0 - Partly cloudy 10 - - - -
23/11:30am 15.4 S 8 11 1016.1 - 0.0 - Partly cloudy 10 - - - -
23/11:00am 15.4 SSW 7 10 1016.5 - 0.0 - Partly cloudy 10 - - - -
23/10:30am 14.6 SSW 8 11 1016.9 - 0.0 - Partly cloudy 10 - - - -
23/10:00am 14.8 WSW 6 8 1016.9 - 0.0 - - 10 - - - -
23/09:30am 13.9 WSW 5 6 1017.1 - 0.0 - - 10 - - - -
23/09:00am 14.7 SW 5 6 1017.1 - 0.2 - - 10 - - - -
23/08:30am 13.7 SSW 4 5 1017.2 - 0.2 - - 10 - - - -
23/08:00am 13.6 SE 3 6 1017.2 - 0.2 - - 10 - - - -
23/07:30am 11.9 ENE 3 4 1017.2 - 0.2 - - 10 - - - -
23/07:00am 9.3 NNE 5 6 1017.1 - 0.2 - - 10 - - - -
23/06:30am 5.6 NE 5 6 1016.8 - 0.2 - - 10 - - - -
23/06:00am 4.5 NE 5 6 1016.6 - 0.2 - - 10 - - - -
23/05:30am 4.7 NE 6 6 1016.3 - 0.2 - - 10 - - - -
23/05:00am 4.9 ENE 6 7 1016.0 - 0.2 - - 10 - - - -
23/04:30am 4.6 NE 6 7 1015.9 - 0.2 - - 10 - - - -
23/04:00am 4.9 NE 3 6 1015.8 - 0.2 - Partly cloudy 10 - - - -
23/03:30am 5.6 CALM 0 0 1015.8 - 0.2 - Partly cloudy 10 - - - -
23/03:00am 5.9 NNE 2 4 1015.6 - 0.2 - - 10 - - - -
23/02:30am 6.0 NE 4 4 1015.4 - 0.2 - - 10 - - - -
23/02:00am 6.3 ENE 4 5 1015.6 - 0.2 - - 10 - - - -

Other Formats:

Comma delimited format used in spreadsheet applications
http://www.bom.gov.au/fwo/IDV60701/IDV60701.94980.axf

JavaScript Object Notation format (JSON) in row-major order
http://www.bom.gov.au/fwo/IDV60701/IDV60701.94980.json